createdAt,value
2022-08-14T00:01:50.223Z,4.95
2022-08-14T00:04:34.436Z,5.17
2022-08-14T00:07:06.077Z,5.25
2022-08-14T00:12:24.268Z,5.18
2022-08-14T00:14:54.881Z,5.40
2022-08-14T00:17:22.608Z,5.47
2022-08-14T00:26:06.055Z,6.20
2022-08-14T00:28:36.042Z,5.15
2022-08-14T00:31:04.992Z,5.05
2022-08-14T00:33:51.423Z,5.28
2022-08-14T00:36:39.095Z,5.85
2022-08-14T00:39:06.537Z,5.85
2022-08-14T00:41:36.081Z,5.90
2022-08-14T00:44:05.434Z,5.43
2022-08-14T00:46:33.368Z,5.60
2022-08-14T00:49:00.777Z,5.03
2022-08-14T00:51:37.702Z,5.57
2022-08-14T00:54:11.007Z,5.13
2022-08-14T00:56:49.108Z,5.43
2022-08-14T00:59:16.190Z,5.30
2022-08-14T01:01:43.093Z,5.38
2022-08-14T01:04:51.618Z,5.18
2022-08-14T01:06:58.647Z,5.35
2022-08-14T01:09:26.618Z,6.13
2022-08-14T01:11:57.167Z,5.75
2022-08-14T01:14:29.930Z,5.78
2022-08-14T01:16:56.870Z,5.00
2022-08-14T01:19:43.309Z,5.10
2022-08-14T01:22:12.562Z,6.20
2022-08-14T01:24:39.577Z,5.20
2022-08-14T01:27:07.314Z,5.80
2022-08-14T01:29:59.005Z,5.18
2022-08-14T01:32:24.666Z,5.80
2022-08-14T01:35:19.905Z,5.15
2022-08-14T01:37:44.649Z,5.38
2022-08-14T01:40:15.513Z,5.03
2022-08-14T01:42:46.506Z,5.78
2022-08-14T01:45:17.762Z,5.53
2022-08-14T01:47:51.831Z,4.68
2022-08-14T01:50:29.609Z,5.38
2022-08-14T01:52:59.618Z,5.85
2022-08-14T01:55:31.690Z,5.72
2022-08-14T01:58:01.884Z,4.95
2022-08-14T02:00:56.856Z,5.50
2022-08-14T02:03:53.477Z,4.85
2022-08-14T02:06:32.885Z,5.55
2022-08-14T02:09:02.633Z,5.40
2022-08-14T02:11:38.951Z,5.38
2022-08-14T02:14:08.665Z,5.45
2022-08-14T02:16:41.584Z,5.13
2022-08-14T02:19:14.797Z,5.93
2022-08-14T02:21:49.098Z,5.25
2022-08-14T02:24:40.304Z,5.38
2022-08-14T02:28:24.027Z,5.32
2022-08-14T02:30:03.250Z,5.22
2022-08-14T02:32:37.516Z,5.72
2022-08-14T02:35:12.753Z,5.63
2022-08-14T02:37:47.877Z,5.50
2022-08-14T02:40:32.507Z,5.85
2022-08-14T02:43:07.752Z,5.25
2022-08-14T02:45:44.639Z,5.65
2022-08-14T02:49:03.907Z,5.10
2022-08-14T02:51:10.905Z,5.82
2022-08-14T02:53:42.423Z,5.57
2022-08-14T02:56:30.164Z,5.30
2022-08-14T02:59:05.433Z,5.10
2022-08-14T03:01:43.114Z,5.57
2022-08-14T03:04:15.278Z,5.50
2022-08-14T03:06:56.807Z,5.80
2022-08-14T03:10:25.633Z,5.85
2022-08-14T03:12:31.758Z,5.78
2022-08-14T03:15:19.731Z,5.57
2022-08-14T03:17:56.572Z,5.35
2022-08-14T03:20:29.012Z,5.68
2022-08-14T03:23:03.280Z,6.30
2022-08-14T03:25:37.701Z,6.35
2022-08-14T03:28:14.746Z,5.85
2022-08-14T03:31:04.544Z,6.05
2022-08-14T03:33:51.770Z,6.13
2022-08-14T03:37:39.128Z,5.93
2022-08-14T03:39:30.701Z,5.22
2022-08-14T03:42:01.822Z,5.90
2022-08-14T03:45:19.754Z,6.03
2022-08-14T03:47:55.868Z,6.22
2022-08-14T03:50:31.627Z,5.75
2022-08-14T03:53:05.142Z,5.47
2022-08-14T03:55:36.699Z,5.75
2022-08-14T03:58:12.998Z,6.90
2022-08-14T04:00:56.083Z,5.50
2022-08-14T04:03:27.115Z,6.22
2022-08-14T04:06:02.059Z,5.90
2022-08-14T04:08:34.942Z,5.80
2022-08-14T04:11:08.014Z,5.88
2022-08-14T04:13:42.559Z,6.30
2022-08-14T04:16:20.354Z,5.63
2022-08-14T04:18:55.250Z,6.13
2022-08-14T04:21:39.854Z,5.68
2022-08-14T04:24:23.939Z,6.22
2022-08-14T04:27:00.097Z,5.63
2022-08-14T04:29:36.974Z,6.35
2022-08-14T04:33:10.489Z,5.95
2022-08-14T04:35:07.788Z,6.07
2022-08-14T04:37:58.231Z,6.38
2022-08-14T04:40:55.466Z,6.25
2022-08-14T04:43:39.615Z,6.00
2022-08-14T04:46:09.344Z,6.63
2022-08-14T04:48:43.714Z,6.15
2022-08-14T04:51:46.222Z,6.40
2022-08-14T04:54:14.110Z,6.47
2022-08-14T04:56:46.443Z,6.07
2022-08-14T04:59:18.589Z,6.00
2022-08-14T05:01:57.151Z,5.78
2022-08-14T05:04:39.802Z,6.47
2022-08-14T05:07:15.172Z,7.10
2022-08-14T05:09:47.783Z,6.00
2022-08-14T05:13:13.449Z,6.32
2022-08-14T05:15:10.563Z,5.80
2022-08-14T05:17:58.691Z,6.30
2022-08-14T05:21:58.022Z,6.45
2022-08-14T05:23:22.905Z,6.80
2022-08-14T05:25:56.741Z,6.55
2022-08-14T05:28:28.627Z,6.90
2022-08-14T05:31:01.966Z,6.38
2022-08-14T05:33:34.290Z,6.65
2022-08-14T05:36:16.428Z,7.22
2022-08-14T05:38:50.303Z,6.80
2022-08-14T05:41:51.026Z,6.53
2022-08-14T05:44:16.253Z,6.40
2022-08-14T05:46:43.034Z,7.15
2022-08-14T05:49:14.485Z,6.45
2022-08-14T05:51:41.838Z,7.65
2022-08-14T05:54:25.364Z,7.82
2022-08-14T05:56:55.800Z,6.45
2022-08-14T05:59:36.758Z,6.10
2022-08-14T06:02:21.811Z,6.95
2022-08-14T06:04:51.196Z,6.57
2022-08-14T06:07:23.264Z,6.85
2022-08-14T06:10:00.298Z,6.88
2022-08-14T06:12:56.648Z,6.07
2022-08-14T06:15:36.116Z,6.03
2022-08-14T06:18:17.688Z,6.88
2022-08-14T06:20:48.129Z,6.68
2022-08-14T06:23:20.299Z,6.55
2022-08-14T06:25:52.857Z,6.72
2022-08-14T06:28:28.630Z,7.00
2022-08-14T06:31:06.711Z,6.43
2022-08-14T06:35:01.317Z,7.28
2022-08-14T06:36:38.102Z,7.25
2022-08-14T06:39:14.903Z,7.22
2022-08-14T06:41:59.421Z,8.18
2022-08-14T06:44:33.367Z,6.95
2022-08-14T06:47:10.016Z,7.25
2022-08-14T06:49:44.252Z,7.22
2022-08-14T06:52:20.312Z,6.50
2022-08-14T06:55:02.905Z,7.82
2022-08-14T06:58:04.461Z,7.13
2022-08-14T07:01:06.676Z,6.90
2022-08-14T07:04:03.785Z,7.03
2022-08-14T07:06:46.568Z,6.93
2022-08-14T07:12:05.334Z,7.15
2022-08-14T07:14:42.717Z,7.45
2022-08-14T07:17:09.472Z,7.15
2022-08-14T07:19:40.025Z,7.32
2022-08-14T07:22:17.766Z,7.90
2022-08-14T07:24:55.433Z,7.72
2022-08-14T07:27:33.466Z,7.53
2022-08-14T07:30:05.365Z,7.85
2022-08-14T07:32:42.323Z,7.88
2022-08-14T07:35:12.088Z,8.00
2022-08-14T07:37:42.305Z,7.45
2022-08-14T07:40:12.983Z,7.45
2022-08-14T07:42:51.203Z,7.40
2022-08-14T07:45:25.463Z,7.32
2022-08-14T07:48:06.315Z,7.45
2022-08-14T07:50:39.473Z,8.77
2022-08-14T07:53:12.924Z,7.45
2022-08-14T07:55:45.499Z,8.90
2022-08-14T07:58:38.931Z,7.45
2022-08-14T08:01:27.569Z,7.30
2022-08-14T08:04:03.330Z,7.40
2022-08-14T08:06:35.156Z,7.30
2022-08-14T08:09:05.852Z,7.68
2022-08-14T08:11:37.284Z,7.50
2022-08-14T08:14:10.752Z,8.05
2022-08-14T08:16:46.286Z,7.95
2022-08-14T08:19:14.388Z,7.65
2022-08-14T08:21:45.668Z,7.22
2022-08-14T08:24:22.914Z,7.63
2022-08-14T08:26:51.964Z,6.97
2022-08-14T08:29:40.356Z,7.38
2022-08-14T08:32:17.133Z,6.87
2022-08-14T08:34:48.555Z,7.10
2022-08-14T08:37:16.003Z,6.55
2022-08-14T08:40:03.387Z,7.57
2022-08-14T08:42:38.170Z,8.05
2022-08-14T08:45:11.811Z,7.03
2022-08-14T08:47:40.381Z,7.25
2022-08-14T08:50:22.994Z,7.38
2022-08-14T08:52:51.633Z,7.57
2022-08-14T08:55:37.657Z,6.65
2022-08-14T08:58:20.327Z,7.82
2022-08-14T09:00:56.570Z,6.93
2022-08-14T09:03:27.590Z,6.88
2022-08-14T09:05:56.170Z,7.30
2022-08-14T09:08:32.743Z,7.63
2022-08-14T09:11:19.486Z,7.23
2022-08-14T09:13:52.106Z,7.10
2022-08-14T09:16:24.872Z,7.43
2022-08-14T09:18:53.187Z,6.90
2022-08-14T09:21:20.973Z,7.30
2022-08-14T09:24:29.600Z,8.07
2022-08-14T09:26:39.633Z,7.20
2022-08-14T09:29:06.802Z,7.55
2022-08-14T09:31:42.584Z,6.87
2022-08-14T09:34:34.620Z,6.63
2022-08-14T09:37:18.947Z,7.13
2022-08-14T09:40:10.023Z,6.80
2022-08-14T09:42:51.213Z,6.80
2022-08-14T09:45:30.525Z,7.22
2022-08-14T09:48:18.945Z,7.38
2022-08-14T09:50:56.054Z,6.65
2022-08-14T09:54:12.765Z,6.40
2022-08-14T09:56:30.505Z,7.70
2022-08-14T09:58:59.229Z,6.28
2022-08-14T10:04:06.962Z,7.40
2022-08-14T10:06:53.514Z,5.85
2022-08-14T10:09:20.333Z,6.53
2022-08-14T10:11:59.048Z,6.20
2022-08-14T10:14:34.887Z,6.45
2022-08-14T10:17:06.069Z,5.97
2022-08-14T10:19:35.523Z,6.75
2022-08-14T10:23:14.343Z,6.07
2022-08-14T10:25:10.341Z,6.20
2022-08-14T10:27:36.815Z,6.68
2022-08-14T10:30:04.720Z,6.50
2022-08-14T10:32:49.821Z,6.55
2022-08-14T10:35:20.235Z,6.00
2022-08-14T10:37:51.170Z,5.95
2022-08-14T10:40:36.989Z,6.22
2022-08-14T10:43:31.825Z,5.68
2022-08-14T10:46:58.963Z,6.32
2022-08-14T10:49:03.952Z,6.50
2022-08-14T10:51:34.295Z,6.38
2022-08-14T10:54:26.326Z,5.93
2022-08-14T10:56:57.315Z,5.80
2022-08-14T11:01:59.880Z,6.60
2022-08-14T11:04:30.858Z,5.43
2022-08-14T11:06:58.525Z,6.43
2022-08-14T11:09:26.578Z,6.00
2022-08-14T11:12:34.983Z,5.82
2022-08-14T11:15:02.664Z,6.43
2022-08-14T11:17:32.386Z,6.25
2022-08-14T11:20:00.985Z,6.05
2022-08-14T11:22:52.306Z,6.38
2022-08-14T11:25:21.246Z,5.28
2022-08-14T11:27:49.174Z,5.28
2022-08-14T11:33:09.386Z,6.40
2022-08-14T11:35:47.883Z,6.20
2022-08-14T11:38:18.688Z,5.95
2022-08-14T11:40:47.110Z,6.00
2022-08-14T11:43:18.086Z,6.32
2022-08-14T11:45:52.105Z,6.05
2022-08-14T11:48:59.103Z,5.95
2022-08-14T11:51:24.047Z,5.68
2022-08-14T11:53:53.993Z,5.60
2022-08-14T11:56:25.350Z,5.00
2022-08-14T11:58:53.977Z,4.97
2022-08-14T12:01:29.117Z,4.65
2022-08-14T12:04:31.779Z,4.80
2022-08-14T12:06:58.954Z,4.97
2022-08-14T12:09:30.769Z,4.53
2022-08-14T12:11:59.600Z,5.20
2022-08-14T12:14:35.509Z,4.50
2022-08-14T12:17:12.187Z,4.88
2022-08-14T12:20:06.825Z,4.85
2022-08-14T12:22:44.197Z,4.28
2022-08-14T12:25:19.214Z,4.75
2022-08-14T12:27:53.404Z,4.22
2022-08-14T12:30:39.339Z,4.43
2022-08-14T12:33:19.057Z,4.72
2022-08-14T12:35:46.179Z,4.90
2022-08-14T12:38:19.504Z,5.22
2022-08-14T12:40:56.133Z,5.00
2022-08-14T12:43:22.858Z,4.82
2022-08-14T12:45:52.289Z,4.47
2022-08-14T12:48:21.423Z,4.03
2022-08-14T12:50:58.101Z,4.45
2022-08-14T12:53:38.380Z,4.63
2022-08-14T12:56:21.538Z,4.07
2022-08-14T12:58:51.863Z,4.20
2022-08-14T13:01:24.821Z,3.92
2022-08-14T13:04:10.449Z,4.70
2022-08-14T13:06:44.191Z,4.00
2022-08-14T13:09:13.238Z,4.30
2022-08-14T13:11:45.106Z,4.13
2022-08-14T13:14:17.975Z,4.13
2022-08-14T13:16:45.631Z,4.55
2022-08-14T13:19:18.409Z,4.50
2022-08-14T13:21:58.457Z,4.10
2022-08-14T13:24:34.904Z,4.32
2022-08-14T13:27:04.377Z,4.25
2022-08-14T13:29:33.699Z,4.05
2022-08-14T13:32:00.880Z,4.22
2022-08-14T13:34:28.937Z,4.63
2022-08-14T13:37:04.070Z,3.72
2022-08-14T13:39:36.226Z,4.10
2022-08-14T13:42:13.879Z,5.05
2022-08-14T13:44:42.757Z,4.10
2022-08-14T13:47:10.277Z,4.35
2022-08-14T13:49:40.153Z,4.53
2022-08-14T13:52:48.206Z,3.63
2022-08-14T13:55:04.259Z,4.20
2022-08-14T13:57:32.810Z,4.72
2022-08-14T14:00:07.041Z,4.30
2022-08-14T14:02:35.638Z,3.53
2022-08-14T14:05:04.221Z,4.40
2022-08-14T14:07:32.128Z,4.20
2022-08-14T14:10:06.218Z,4.20
2022-08-14T14:12:41.389Z,4.40
2022-08-14T14:15:11.807Z,4.00
2022-08-14T14:17:39.702Z,4.28
2022-08-14T14:20:34.038Z,4.50
2022-08-14T14:23:03.412Z,4.30
2022-08-14T14:25:46.507Z,4.50
2022-08-14T14:28:16.908Z,4.13
2022-08-14T14:30:54.619Z,4.22
2022-08-14T14:33:45.306Z,4.15
2022-08-14T14:36:13.964Z,3.80
2022-08-14T14:38:44.240Z,3.85
2022-08-14T14:41:14.783Z,4.55
2022-08-14T14:43:45.398Z,4.53
2022-08-14T14:46:16.463Z,4.43
2022-08-14T14:48:46.463Z,4.53
2022-08-14T14:51:14.640Z,3.60
2022-08-14T14:53:43.080Z,4.18
2022-08-14T14:56:51.156Z,4.32
2022-08-14T14:58:57.659Z,4.25
2022-08-14T15:01:25.340Z,4.13
2022-08-14T15:03:54.088Z,4.18
2022-08-14T15:06:22.648Z,3.97
2022-08-14T15:08:58.338Z,3.45
2022-08-14T15:11:30.407Z,4.45
2022-08-14T15:13:58.981Z,4.03
2022-08-14T15:16:27.487Z,4.25
2022-08-14T15:18:54.034Z,4.05
2022-08-14T15:21:20.540Z,4.15
2022-08-14T15:23:48.136Z,3.83
2022-08-14T15:26:24.069Z,4.25
2022-08-14T15:29:05.034Z,3.85
2022-08-14T15:31:34.912Z,4.40
2022-08-14T15:34:46.111Z,4.50
2022-08-14T15:36:58.857Z,4.15
2022-08-14T15:39:29.404Z,4.05
2022-08-14T15:42:02.196Z,4.82
2022-08-14T15:44:36.546Z,4.18
2022-08-14T15:47:10.918Z,4.13
2022-08-14T15:49:39.749Z,4.70
2022-08-14T15:52:07.200Z,4.63
2022-08-14T15:54:34.996Z,4.05
2022-08-14T15:57:09.804Z,4.72
2022-08-14T15:59:57.010Z,4.15
2022-08-14T16:02:27.949Z,4.47
2022-08-14T16:04:55.478Z,4.70
2022-08-14T16:07:25.306Z,4.55
2022-08-14T16:10:11.845Z,4.88
2022-08-14T16:12:45.974Z,4.60
2022-08-14T16:15:15.910Z,4.55
2022-08-14T16:17:44.797Z,5.07
2022-08-14T16:23:00.564Z,4.47
2022-08-14T16:25:34.560Z,4.75
2022-08-14T16:28:03.443Z,4.20
2022-08-14T16:30:35.467Z,4.95
2022-08-14T16:33:04.647Z,4.30
2022-08-14T16:35:43.186Z,4.55
2022-08-14T16:38:46.435Z,4.97
2022-08-14T16:41:21.984Z,4.57
2022-08-14T16:43:59.283Z,6.35
2022-08-14T16:46:27.256Z,4.78
2022-08-14T16:48:58.180Z,4.75
2022-08-14T16:51:25.649Z,4.30
2022-08-14T16:53:55.704Z,4.90
2022-08-14T16:56:25.524Z,4.43
2022-08-14T16:59:06.751Z,5.18
2022-08-14T17:01:35.999Z,4.95
2022-08-14T17:04:09.295Z,4.97
2022-08-14T17:06:55.044Z,4.80
2022-08-14T17:09:43.447Z,5.30
2022-08-14T17:12:29.084Z,5.15
2022-08-14T17:15:11.227Z,4.05
2022-08-14T17:17:43.634Z,4.57
2022-08-14T17:21:00.438Z,4.88
2022-08-14T17:23:11.088Z,4.25
2022-08-14T17:25:50.736Z,4.43
2022-08-14T17:28:49.996Z,4.22
2022-08-14T17:31:12.816Z,4.75
2022-08-14T17:33:52.510Z,5.10
2022-08-14T17:36:24.578Z,4.50
2022-08-14T17:39:09.239Z,4.32
2022-08-14T17:41:43.342Z,4.78
2022-08-14T17:44:12.318Z,4.80
2022-08-14T17:46:50.129Z,4.38
2022-08-14T17:49:28.242Z,5.00
2022-08-14T17:52:07.357Z,4.97
2022-08-14T17:54:45.342Z,5.18
2022-08-14T17:57:18.085Z,5.07
2022-08-14T17:59:48.193Z,5.18
2022-08-14T18:02:16.758Z,4.82
2022-08-14T18:04:46.978Z,4.88
2022-08-14T18:08:30.984Z,5.03
2022-08-14T18:10:52.957Z,5.35
2022-08-14T18:12:56.647Z,4.78
2022-08-14T18:15:23.240Z,5.10
2022-08-14T18:18:08.913Z,4.90
2022-08-14T18:23:14.555Z,4.95
2022-08-14T18:25:47.352Z,4.50
2022-08-14T18:28:18.220Z,4.65
2022-08-14T18:31:20.668Z,4.95
2022-08-14T18:33:58.783Z,4.55
2022-08-14T18:36:55.377Z,5.30
2022-08-14T18:39:29.518Z,5.22
2022-08-14T18:42:23.202Z,5.07
2022-08-14T18:44:50.664Z,5.88
2022-08-14T18:47:21.200Z,4.95
2022-08-14T18:50:27.274Z,5.13
2022-08-14T18:52:53.219Z,5.38
2022-08-14T18:58:27.714Z,4.78
2022-08-14T19:00:55.913Z,5.43
2022-08-14T19:03:33.941Z,5.22
2022-08-14T19:06:05.972Z,5.68
2022-08-14T19:08:38.491Z,5.30
2022-08-14T19:11:06.904Z,5.25
2022-08-14T19:13:48.546Z,5.28
2022-08-14T19:16:23.765Z,5.22
2022-08-14T19:19:00.017Z,5.40
2022-08-14T19:21:36.070Z,4.60
2022-08-14T19:24:27.585Z,4.75
2022-08-14T19:27:23.655Z,5.32
2022-08-14T19:29:51.987Z,5.60
2022-08-14T19:32:40.776Z,5.05
2022-08-14T19:35:19.443Z,4.35
2022-08-14T19:37:57.050Z,5.10
2022-08-14T19:40:39.921Z,4.93
2022-08-14T19:43:09.346Z,5.45
2022-08-14T19:45:37.715Z,5.40
2022-08-14T19:50:41.298Z,5.25
2022-08-14T19:53:17.426Z,6.30
2022-08-14T19:55:54.868Z,5.32
2022-08-14T19:58:27.967Z,5.93
2022-08-14T20:00:57.004Z,5.85
2022-08-14T20:03:24.831Z,5.13
2022-08-14T20:06:00.599Z,5.25
2022-08-14T20:11:01.102Z,5.60
2022-08-14T20:12:02.093Z,6.07
2022-08-14T20:14:29.409Z,5.93
2022-08-14T20:17:03.222Z,5.53
2022-08-14T20:19:37.996Z,5.75
2022-08-14T20:22:37.426Z,5.05
2022-08-14T20:24:55.234Z,5.55
2022-08-14T20:27:33.690Z,5.32
2022-08-14T20:33:01.767Z,4.65
2022-08-14T20:35:52.227Z,6.32
2022-08-14T20:38:29.307Z,4.88
2022-08-14T20:41:10.818Z,5.68
2022-08-14T20:43:59.492Z,5.47
2022-08-14T20:46:29.384Z,5.50
2022-08-14T20:49:02.344Z,5.03
2022-08-14T20:51:43.405Z,5.05
2022-08-14T20:54:34.170Z,6.00
2022-08-14T20:57:15.575Z,5.63
2022-08-14T20:59:53.257Z,5.57
2022-08-14T21:02:34.703Z,5.82
2022-08-14T21:05:17.253Z,5.30
2022-08-14T21:07:51.344Z,5.80
2022-08-14T21:10:33.717Z,5.70
2022-08-14T21:13:26.288Z,5.53
2022-08-14T21:15:57.844Z,5.43
2022-08-14T21:18:47.361Z,5.57
2022-08-14T21:21:18.725Z,5.70
2022-08-14T21:23:55.475Z,5.57
2022-08-14T21:26:50.582Z,5.25
2022-08-14T21:29:13.455Z,6.22
2022-08-14T21:31:40.759Z,5.93
2022-08-14T21:34:31.143Z,6.35
2022-08-14T21:36:55.962Z,6.32
2022-08-14T21:39:24.032Z,6.25
2022-08-14T21:41:58.645Z,5.97
2022-08-14T21:44:42.896Z,5.40
2022-08-14T21:47:12.090Z,5.53
2022-08-14T21:49:40.217Z,5.38
2022-08-14T21:52:49.559Z,5.82
2022-08-14T21:55:08.890Z,5.28
2022-08-14T21:57:56.574Z,5.38
2022-08-14T22:00:35.607Z,5.60
2022-08-14T22:03:08.904Z,6.18
2022-08-14T22:05:38.383Z,7.15
2022-08-14T22:08:06.569Z,6.20
2022-08-14T22:10:34.892Z,6.00
2022-08-14T22:13:01.999Z,5.82
2022-08-14T22:15:30.123Z,5.88
2022-08-14T22:17:58.315Z,6.60
2022-08-14T22:20:28.288Z,5.53
2022-08-14T22:22:56.855Z,5.50
2022-08-14T22:25:32.908Z,6.78
2022-08-14T22:28:01.290Z,5.93
2022-08-14T22:30:27.825Z,5.20
2022-08-14T22:32:57.571Z,5.60
2022-08-14T22:35:25.416Z,5.90
2022-08-14T22:38:01.623Z,5.18
2022-08-14T22:41:02.733Z,5.43
2022-08-14T22:43:31.199Z,5.88
2022-08-14T22:45:58.323Z,5.40
2022-08-14T22:48:29.594Z,5.45
2022-08-14T22:50:56.249Z,5.43
2022-08-14T22:53:23.858Z,5.53
2022-08-14T22:55:55.709Z,5.47
2022-08-14T22:58:30.299Z,5.30
2022-08-14T23:01:00.132Z,5.38
2022-08-14T23:03:27.207Z,5.00
2022-08-14T23:05:55.340Z,4.75
2022-08-14T23:08:57.705Z,5.63
2022-08-14T23:11:10.406Z,5.72
2022-08-14T23:13:43.607Z,5.22
2022-08-14T23:16:20.461Z,5.47
2022-08-14T23:18:54.157Z,5.15
2022-08-14T23:21:24.414Z,5.65
2022-08-14T23:23:55.237Z,4.90
2022-08-14T23:26:48.614Z,5.40
2022-08-14T23:31:39.368Z,5.55
2022-08-14T23:34:08.582Z,5.45
2022-08-14T23:36:53.505Z,5.03
2022-08-14T23:39:30.025Z,5.15
2022-08-14T23:41:57.518Z,5.35
2022-08-14T23:44:32.146Z,5.75
2022-08-14T23:47:05.445Z,6.13
2022-08-14T23:49:56.512Z,5.47
2022-08-14T23:52:51.016Z,5.82
2022-08-14T23:55:11.393Z,5.50
2022-08-14T23:57:43.791Z,5.25
